createdAt,value
2023-05-10T00:00:56.024Z,4.30
2023-05-10T00:03:22.827Z,4.20
2023-05-10T00:05:49.232Z,4.10
2023-05-10T00:08:15.836Z,4.18
2023-05-10T00:10:42.294Z,4.35
2023-05-10T00:13:08.768Z,4.43
2023-05-10T00:15:35.683Z,4.22
2023-05-10T00:18:02.132Z,4.63
2023-05-10T00:20:28.612Z,4.60
2023-05-10T00:22:55.084Z,4.20
2023-05-10T00:25:22.554Z,4.63
2023-05-10T00:27:49.279Z,4.90
2023-05-10T00:30:16.052Z,4.88
2023-05-10T00:32:42.779Z,5.03
2023-05-10T00:35:09.420Z,5.28
2023-05-10T00:37:35.863Z,5.15
2023-05-10T00:40:02.248Z,4.93
2023-05-10T00:42:28.802Z,5.10
2023-05-10T00:44:55.637Z,5.55
2023-05-10T00:47:22.848Z,5.38
2023-05-10T00:49:49.347Z,4.57
2023-05-10T00:52:16.160Z,4.25
2023-05-10T00:54:42.833Z,4.05
2023-05-10T00:57:09.654Z,3.50
2023-05-10T00:59:36.105Z,2.90
2023-05-10T01:02:02.649Z,2.22
2023-05-10T01:04:29.926Z,2.08
2023-05-10T01:06:56.312Z,1.40
2023-05-10T01:09:23.575Z,1.40
2023-05-10T01:11:50.318Z,1.20
2023-05-10T01:14:20.009Z,1.20
2023-05-10T01:16:49.541Z,1.55
2023-05-10T01:19:29.297Z,1.45
2023-05-10T01:22:26.969Z,1.52
2023-05-10T01:24:57.319Z,1.50
2023-05-10T01:27:45.447Z,2.00
2023-05-10T01:30:22.359Z,2.13
2023-05-10T01:32:51.560Z,2.10
2023-05-10T01:35:34.304Z,2.13
2023-05-10T01:38:18.551Z,2.10
2023-05-10T01:40:51.958Z,2.13
2023-05-10T01:43:24.956Z,2.00
2023-05-10T01:45:54.367Z,2.50
2023-05-10T01:48:21.919Z,2.42
2023-05-10T01:50:50.002Z,2.60
2023-05-10T01:53:19.974Z,2.60
2023-05-10T01:55:49.921Z,2.42
2023-05-10T01:58:21.067Z,2.83
2023-05-10T02:00:50.715Z,2.80
2023-05-10T02:03:19.481Z,2.95
2023-05-10T02:05:49.184Z,2.83
2023-05-10T02:08:18.803Z,3.08
2023-05-10T02:10:46.874Z,3.20
2023-05-10T02:13:15.045Z,3.40
2023-05-10T02:15:42.573Z,1.98
2023-05-10T02:18:11.877Z,1.65
2023-05-10T02:20:38.965Z,1.42
2023-05-10T02:23:07.597Z,1.30
2023-05-10T02:25:34.374Z,1.00
2023-05-10T02:28:03.675Z,0.73
2023-05-10T02:30:33.367Z,0.73
2023-05-10T02:33:00.954Z,1.00
2023-05-10T02:35:29.079Z,1.02
2023-05-10T02:37:57.299Z,0.93
2023-05-10T02:40:26.153Z,1.30
2023-05-10T02:42:57.324Z,1.10
2023-05-10T02:45:29.022Z,1.20
2023-05-10T02:47:55.978Z,1.48
2023-05-10T02:50:23.477Z,1.70
2023-05-10T02:52:57.436Z,1.70
2023-05-10T02:55:27.908Z,2.00
2023-05-10T02:58:03.351Z,1.88
2023-05-10T03:00:30.249Z,2.15
2023-05-10T03:02:56.983Z,2.28
2023-05-10T03:05:23.664Z,2.40
2023-05-10T03:07:51.766Z,2.70
2023-05-10T03:10:18.876Z,2.85
2023-05-10T03:13:06.903Z,2.80
2023-05-10T03:16:14.762Z,2.97
2023-05-10T03:19:28.931Z,2.50
2023-05-10T03:22:01.288Z,2.60
2023-05-10T03:24:29.697Z,3.22
2023-05-10T03:26:57.943Z,3.65
2023-05-10T03:29:27.064Z,3.40
2023-05-10T03:31:53.565Z,3.67
2023-05-10T03:34:25.158Z,3.70
2023-05-10T03:36:51.692Z,3.33
2023-05-10T03:39:18.105Z,3.63
2023-05-10T03:41:44.498Z,3.90
2023-05-10T03:44:11.073Z,3.72
2023-05-10T03:46:37.490Z,3.65
2023-05-10T03:49:03.875Z,3.72
2023-05-10T03:51:32.126Z,3.60
2023-05-10T03:53:58.545Z,4.15
2023-05-10T03:56:25.018Z,3.75
2023-05-10T03:58:51.546Z,3.90
2023-05-10T04:01:17.885Z,3.63
2023-05-10T04:03:44.385Z,3.88
2023-05-10T04:06:12.693Z,3.30
2023-05-10T04:08:39.129Z,3.50
2023-05-10T04:11:10.157Z,3.80
2023-05-10T04:13:36.834Z,3.95
2023-05-10T04:16:03.850Z,3.72
2023-05-10T04:18:30.450Z,3.45
2023-05-10T04:20:56.800Z,3.15
2023-05-10T04:23:23.218Z,3.40
2023-05-10T04:25:49.673Z,3.38
2023-05-10T04:28:16.021Z,3.58
2023-05-10T04:30:42.396Z,3.30
2023-05-10T04:33:08.831Z,3.45
2023-05-10T04:35:36.034Z,3.05
2023-05-10T04:38:02.492Z,3.60
2023-05-10T04:40:29.027Z,2.90
2023-05-10T04:42:55.429Z,3.70
2023-05-10T04:45:21.996Z,3.70
2023-05-10T04:47:48.459Z,3.70
2023-05-10T04:50:15.123Z,4.10
2023-05-10T04:52:41.800Z,3.95
2023-05-10T04:55:10.496Z,4.05
2023-05-10T04:57:36.909Z,4.63
2023-05-10T05:00:04.011Z,4.80
2023-05-10T05:02:30.603Z,4.00
2023-05-10T05:04:58.768Z,4.10
2023-05-10T05:07:25.203Z,3.75
2023-05-10T05:09:51.656Z,3.92
2023-05-10T05:12:18.161Z,3.70
2023-05-10T05:14:44.722Z,3.80
2023-05-10T05:17:11.195Z,3.83
2023-05-10T05:19:37.818Z,3.70
2023-05-10T05:22:04.268Z,3.78
2023-05-10T05:24:35.939Z,3.88
2023-05-10T05:27:02.400Z,4.07
2023-05-10T05:29:28.842Z,4.10
2023-05-10T05:31:55.699Z,4.13
2023-05-10T05:34:23.067Z,4.68
2023-05-10T05:36:49.498Z,5.40
2023-05-10T05:39:15.960Z,4.72
2023-05-10T05:41:42.370Z,5.30
2023-05-10T05:44:09.216Z,5.40
2023-05-10T05:46:35.757Z,5.15
2023-05-10T05:49:02.290Z,5.80
2023-05-10T05:51:28.791Z,5.60
2023-05-10T05:53:55.172Z,5.50
2023-05-10T05:56:25.182Z,5.78
2023-05-10T05:58:52.248Z,5.78
2023-05-10T06:01:18.721Z,6.30
2023-05-10T06:03:45.393Z,6.05
2023-05-10T06:06:11.822Z,6.07
2023-05-10T06:08:38.172Z,6.07
2023-05-10T06:11:05.101Z,5.75
2023-05-10T06:13:33.455Z,6.80
2023-05-10T06:16:00.259Z,6.90
2023-05-10T06:18:26.673Z,6.53
2023-05-10T06:20:53.177Z,7.22
2023-05-10T06:23:19.513Z,6.55
2023-05-10T06:25:45.918Z,7.95
2023-05-10T06:28:12.453Z,9.05
2023-05-10T06:30:38.973Z,8.95
2023-05-10T06:33:05.822Z,8.77
2023-05-10T06:35:34.487Z,7.43
2023-05-10T06:38:00.949Z,7.50
2023-05-10T06:40:27.316Z,7.20
2023-05-10T06:42:53.750Z,6.93
2023-05-10T06:45:20.571Z,6.88
2023-05-10T06:47:47.204Z,7.80
2023-05-10T06:50:13.867Z,8.02
2023-05-10T06:52:40.662Z,8.00
2023-05-10T06:55:07.925Z,9.45
2023-05-10T06:57:34.437Z,10.15
2023-05-10T07:00:01.010Z,9.73
2023-05-10T07:02:27.723Z,10.02
2023-05-10T07:04:54.485Z,10.23
2023-05-10T07:07:20.994Z,9.68
2023-05-10T07:09:47.443Z,11.57
2023-05-10T07:12:15.281Z,10.45
2023-05-10T07:14:42.274Z,11.40
2023-05-10T07:17:08.733Z,11.07
2023-05-10T07:19:35.192Z,11.13
2023-05-10T07:22:01.966Z,11.38
2023-05-10T07:24:28.480Z,11.68
2023-05-10T07:26:54.901Z,11.65
2023-05-10T07:29:21.242Z,12.55
2023-05-10T07:31:47.711Z,14.02
2023-05-10T07:34:14.229Z,14.15
2023-05-10T07:36:40.587Z,14.13
2023-05-10T07:39:06.953Z,15.02
2023-05-10T07:41:35.055Z,14.43
2023-05-10T07:44:02.171Z,15.45
2023-05-10T07:46:29.416Z,16.45
2023-05-10T07:48:56.069Z,16.08
2023-05-10T07:51:22.631Z,16.27
2023-05-10T07:53:49.053Z,17.30
2023-05-10T07:56:23.754Z,18.50
2023-05-10T07:58:50.302Z,16.90
2023-05-10T08:01:16.796Z,18.52
2023-05-10T08:03:43.258Z,17.88
2023-05-10T08:06:09.840Z,18.50
2023-05-10T08:08:36.248Z,18.80
2023-05-10T08:11:02.844Z,17.88
2023-05-10T08:13:29.248Z,19.10
2023-05-10T08:15:55.680Z,18.02
2023-05-10T08:18:22.316Z,19.05
2023-05-10T08:20:49.270Z,18.20
2023-05-10T08:23:15.785Z,17.58
2023-05-10T08:25:42.305Z,17.50
2023-05-10T08:28:09.997Z,18.35
2023-05-10T08:30:37.659Z,17.17
2023-05-10T08:33:04.232Z,17.13
2023-05-10T08:35:30.712Z,17.95
2023-05-10T08:37:57.059Z,18.00
2023-05-10T08:40:26.966Z,16.35
2023-05-10T08:43:08.031Z,17.55
2023-05-10T08:45:38.570Z,16.75
2023-05-10T08:48:10.789Z,18.17
2023-05-10T08:50:38.713Z,17.73
2023-05-10T08:53:57.177Z,17.23
2023-05-10T09:00:36.859Z,15.82
2023-05-10T09:11:53.521Z,16.65
2023-05-10T09:15:09.599Z,16.42
2023-05-10T09:17:56.159Z,15.85
2023-05-10T09:20:52.784Z,15.13
2023-05-10T09:26:36.530Z,15.77
2023-05-10T09:33:24.426Z,15.20
2023-05-10T09:43:35.396Z,14.85
2023-05-10T09:46:13.851Z,13.95
2023-05-10T09:48:45.389Z,15.48
2023-05-10T09:51:12.027Z,15.52
2023-05-10T09:53:38.771Z,15.60
2023-05-10T09:59:43.725Z,14.95
2023-05-10T10:05:02.168Z,13.75
2023-05-10T10:07:40.788Z,14.63
2023-05-10T10:10:26.127Z,14.52
2023-05-10T10:12:53.561Z,15.70
2023-05-10T10:15:22.103Z,15.43
2023-05-10T10:17:50.331Z,15.15
2023-05-10T10:20:18.584Z,15.50
2023-05-10T10:22:45.666Z,14.02
2023-05-10T10:25:14.701Z,14.02
2023-05-10T10:28:03.626Z,13.57
2023-05-10T10:30:36.398Z,12.60
2023-05-10T10:34:12.197Z,12.38
2023-05-10T10:36:49.601Z,11.18
2023-05-10T10:39:17.060Z,12.57
2023-05-10T10:42:48.707Z,12.68
2023-05-10T10:48:30.833Z,11.35
2023-05-10T10:51:07.517Z,11.55
2023-05-10T10:53:37.404Z,11.88
2023-05-10T10:56:08.412Z,11.43
2023-05-10T10:58:36.038Z,11.43
2023-05-10T11:01:19.328Z,12.07
2023-05-10T11:04:01.024Z,11.27
2023-05-10T11:06:32.694Z,11.32
2023-05-10T11:08:59.321Z,10.88
2023-05-10T11:11:25.844Z,10.60
2023-05-10T11:13:52.367Z,12.00
2023-05-10T11:16:22.641Z,11.13
2023-05-10T11:18:57.758Z,8.95
2023-05-10T11:21:24.361Z,8.07
2023-05-10T11:23:58.315Z,7.80
2023-05-10T11:26:27.031Z,7.55
2023-05-10T11:28:57.771Z,7.13
2023-05-10T11:31:24.764Z,7.75
2023-05-10T11:33:53.652Z,8.63
2023-05-10T11:36:28.306Z,7.65
2023-05-10T11:38:56.112Z,8.27
2023-05-10T11:41:23.707Z,7.47
2023-05-10T11:43:52.255Z,7.95
2023-05-10T11:46:21.639Z,7.57
2023-05-10T11:48:51.830Z,6.80
2023-05-10T11:51:23.221Z,6.70
2023-05-10T11:53:51.458Z,7.28
2023-05-10T11:56:17.879Z,6.97
2023-05-10T11:58:44.445Z,6.97
2023-05-10T12:01:11.578Z,7.47
2023-05-10T12:03:38.647Z,7.75
2023-05-10T12:06:05.572Z,8.30
2023-05-10T12:08:31.985Z,8.93
2023-05-10T12:11:06.553Z,9.60
2023-05-10T12:13:32.996Z,9.98
2023-05-10T12:16:00.006Z,10.98
2023-05-10T12:18:26.566Z,11.02
2023-05-10T12:20:57.135Z,10.57
2023-05-10T12:23:23.535Z,9.85
2023-05-10T12:25:50.020Z,10.02
2023-05-10T12:28:20.284Z,10.20
2023-05-10T12:30:46.795Z,9.93
2023-05-10T12:33:16.086Z,9.57
2023-05-10T12:35:54.129Z,9.65
2023-05-10T12:38:48.592Z,9.90
2023-05-10T12:41:17.825Z,9.23
2023-05-10T12:43:44.937Z,9.20
2023-05-10T12:46:13.551Z,9.98
2023-05-10T12:48:41.410Z,9.57
2023-05-10T12:51:13.154Z,9.93
2023-05-10T12:53:41.815Z,8.80
2023-05-10T12:56:10.661Z,9.23
2023-05-10T12:58:37.012Z,9.38
2023-05-10T13:01:03.931Z,9.02
2023-05-10T13:03:30.609Z,10.02
2023-05-10T13:05:57.004Z,10.57
2023-05-10T13:08:23.644Z,9.93
2023-05-10T13:10:50.301Z,10.30
2023-05-10T13:13:16.746Z,10.45
2023-05-10T13:15:43.116Z,10.30
2023-05-10T13:18:09.673Z,9.80
2023-05-10T13:20:36.104Z,10.10
2023-05-10T13:23:03.476Z,10.57
2023-05-10T13:25:30.815Z,9.45
2023-05-10T13:27:57.195Z,9.80
2023-05-10T13:30:24.736Z,10.90
2023-05-10T13:32:51.123Z,10.25
2023-05-10T13:35:17.640Z,9.65
2023-05-10T13:37:44.145Z,10.60
2023-05-10T13:40:11.346Z,10.43
2023-05-10T13:42:38.398Z,9.73
2023-05-10T13:45:05.403Z,9.88
2023-05-10T13:47:31.988Z,8.95
2023-05-10T13:49:58.676Z,10.43
2023-05-10T13:52:25.108Z,10.10
2023-05-10T13:54:55.889Z,9.73
2023-05-10T13:57:22.854Z,9.30
2023-05-10T13:59:49.287Z,8.23
2023-05-10T14:02:16.114Z,9.73
2023-05-10T14:04:42.476Z,9.77
2023-05-10T14:07:09.126Z,9.13
2023-05-10T14:09:35.448Z,9.45
2023-05-10T14:12:01.913Z,8.68
2023-05-10T14:14:30.097Z,8.85
2023-05-10T14:16:56.829Z,8.50
2023-05-10T14:19:23.206Z,8.45
2023-05-10T14:21:49.583Z,9.02
2023-05-10T14:24:16.116Z,8.35
2023-05-10T14:26:42.487Z,8.00
2023-05-10T14:29:10.047Z,7.93
2023-05-10T14:31:38.636Z,8.20
2023-05-10T14:34:05.117Z,8.02
2023-05-10T14:36:31.707Z,8.13
2023-05-10T14:38:58.093Z,8.30
2023-05-10T14:41:25.677Z,7.43
2023-05-10T14:43:52.259Z,6.75
2023-05-10T14:46:19.117Z,7.13
2023-05-10T14:48:45.560Z,6.75
2023-05-10T14:51:12.001Z,7.38
2023-05-10T14:53:38.365Z,8.00
2023-05-10T14:56:04.947Z,7.40
2023-05-10T14:58:33.992Z,7.40
2023-05-10T15:01:00.723Z,7.85
2023-05-10T15:03:27.719Z,8.32
2023-05-10T15:05:54.744Z,7.25
2023-05-10T15:08:21.504Z,7.78
2023-05-10T15:10:47.886Z,6.90
2023-05-10T15:13:14.235Z,7.72
2023-05-10T15:15:40.716Z,7.95
2023-05-10T15:18:07.193Z,7.70
2023-05-10T15:20:33.569Z,7.50
2023-05-10T15:22:59.897Z,8.35
2023-05-10T15:25:27.069Z,7.45
2023-05-10T15:27:53.463Z,7.60
2023-05-10T15:30:19.934Z,7.53
2023-05-10T15:32:46.452Z,7.78
2023-05-10T15:35:13.592Z,6.95
2023-05-10T15:37:42.253Z,6.90
2023-05-10T15:40:08.962Z,6.93
2023-05-10T15:42:35.358Z,7.43
2023-05-10T15:45:01.843Z,7.07
2023-05-10T15:47:31.810Z,6.53
2023-05-10T15:49:58.187Z,7.40
2023-05-10T15:52:24.702Z,6.82
2023-05-10T15:54:51.513Z,6.47
2023-05-10T15:57:17.860Z,7.25
2023-05-10T15:59:44.493Z,6.88
2023-05-10T16:02:11.033Z,7.35
2023-05-10T16:04:37.780Z,8.00
2023-05-10T16:07:04.312Z,7.13
2023-05-10T16:09:30.718Z,7.35
2023-05-10T16:11:57.047Z,7.30
2023-05-10T16:14:24.618Z,7.68
2023-05-10T16:16:51.469Z,7.43
2023-05-10T16:19:18.252Z,7.43
2023-05-10T16:21:44.876Z,7.75
2023-05-10T16:24:11.394Z,7.75
2023-05-10T16:26:40.920Z,6.75
2023-05-10T16:29:10.745Z,6.35
2023-05-10T16:31:37.359Z,6.90
2023-05-10T16:34:03.857Z,6.72
2023-05-10T16:36:31.256Z,7.15
2023-05-10T16:38:57.613Z,6.25
2023-05-10T16:41:24.025Z,6.40
2023-05-10T16:43:50.466Z,6.28
2023-05-10T16:46:16.952Z,6.00
2023-05-10T16:48:43.565Z,5.97
2023-05-10T16:51:09.915Z,5.22
2023-05-10T16:53:36.316Z,5.60
2023-05-10T16:56:03.065Z,5.45
2023-05-10T16:58:29.426Z,5.78
2023-05-10T17:00:58.496Z,5.32
2023-05-10T17:03:25.038Z,5.55
2023-05-10T17:05:51.485Z,5.03
2023-05-10T17:08:17.916Z,5.22
2023-05-10T17:10:44.447Z,5.28
2023-05-10T17:13:11.016Z,5.07
2023-05-10T17:15:38.947Z,5.03
2023-05-10T17:18:06.704Z,5.75
2023-05-10T17:20:33.522Z,4.97
2023-05-10T17:23:02.556Z,5.20
2023-05-10T17:25:29.156Z,5.07
2023-05-10T17:27:55.605Z,5.35
2023-05-10T17:30:26.197Z,5.30
2023-05-10T17:32:54.093Z,4.53
2023-05-10T17:35:21.340Z,5.45
2023-05-10T17:37:47.722Z,5.25
2023-05-10T17:40:14.097Z,5.13
2023-05-10T17:42:40.806Z,4.63
2023-05-10T17:45:07.727Z,5.53
2023-05-10T17:47:34.143Z,4.97
2023-05-10T17:50:00.505Z,5.45
2023-05-10T17:52:27.005Z,4.57
2023-05-10T17:54:53.338Z,3.88
2023-05-10T17:57:20.666Z,4.20
2023-05-10T17:59:47.483Z,3.60
2023-05-10T18:02:13.902Z,3.15
2023-05-10T18:04:40.865Z,3.40
2023-05-10T18:07:08.504Z,3.17
2023-05-10T18:09:34.981Z,3.88
2023-05-10T18:12:04.940Z,3.00
2023-05-10T18:14:40.472Z,3.35
2023-05-10T18:17:07.942Z,2.80
2023-05-10T18:19:34.563Z,3.42
2023-05-10T18:22:00.932Z,3.13
2023-05-10T18:24:38.388Z,3.00
2023-05-10T18:27:06.938Z,2.75
2023-05-10T18:29:33.401Z,3.17
2023-05-10T18:31:59.781Z,3.28
2023-05-10T18:34:26.272Z,3.30
2023-05-10T18:36:52.949Z,3.28
2023-05-10T18:39:19.411Z,3.15
2023-05-10T18:41:45.936Z,3.00
2023-05-10T18:44:12.300Z,3.50
2023-05-10T18:46:40.099Z,3.08
2023-05-10T18:49:08.257Z,2.90
2023-05-10T18:51:34.741Z,3.70
2023-05-10T18:54:01.326Z,3.17
2023-05-10T18:56:27.697Z,3.50
2023-05-10T18:58:54.222Z,3.35
2023-05-10T19:01:21.172Z,3.33
2023-05-10T19:03:47.599Z,3.22
2023-05-10T19:06:13.992Z,3.67
2023-05-10T19:08:40.403Z,3.83
2023-05-10T19:11:06.715Z,3.60
2023-05-10T19:13:33.065Z,3.33
2023-05-10T19:16:10.433Z,3.67
2023-05-10T19:18:37.000Z,3.42
2023-05-10T19:21:05.585Z,3.58
2023-05-10T19:23:33.517Z,4.00
2023-05-10T19:26:01.126Z,3.60
2023-05-10T19:28:27.531Z,3.70
2023-05-10T19:30:54.019Z,3.78
2023-05-10T19:33:20.884Z,3.88
2023-05-10T19:35:49.192Z,3.72
2023-05-10T19:38:15.738Z,3.53
2023-05-10T19:40:42.214Z,3.63
2023-05-10T19:43:08.698Z,3.33
2023-05-10T19:45:35.521Z,3.67
2023-05-10T19:48:02.191Z,4.20
2023-05-10T19:50:28.558Z,4.15
2023-05-10T19:52:55.020Z,4.15
2023-05-10T19:55:31.914Z,3.63
2023-05-10T19:58:00.572Z,4.10
2023-05-10T20:00:29.822Z,4.22
2023-05-10T20:02:56.277Z,4.25
2023-05-10T20:05:22.975Z,4.18
2023-05-10T20:07:49.472Z,4.18
2023-05-10T20:10:17.385Z,4.38
2023-05-10T20:12:51.402Z,4.53
2023-05-10T20:15:22.911Z,4.65
2023-05-10T20:17:53.723Z,5.40
2023-05-10T20:20:21.105Z,4.38
2023-05-10T20:22:48.421Z,4.93
2023-05-10T20:25:15.923Z,5.15
2023-05-10T20:27:42.719Z,5.03
2023-05-10T20:30:10.410Z,5.03
2023-05-10T20:32:37.923Z,5.30
2023-05-10T20:35:05.400Z,5.45
2023-05-10T20:37:32.055Z,5.00
2023-05-10T20:39:58.635Z,5.20
2023-05-10T20:42:24.992Z,5.13
2023-05-10T20:44:51.539Z,4.93
2023-05-10T20:47:18.074Z,5.00
2023-05-10T20:49:44.461Z,5.60
2023-05-10T20:52:11.198Z,5.20
2023-05-10T20:54:52.388Z,4.65
2023-05-10T20:57:19.477Z,5.10
2023-05-10T20:59:45.826Z,4.97
2023-05-10T21:02:12.308Z,5.20
2023-05-10T21:04:38.669Z,5.38
2023-05-10T21:07:05.016Z,5.55
2023-05-10T21:09:31.386Z,5.50
2023-05-10T21:11:58.056Z,5.80
2023-05-10T21:14:24.372Z,5.93
2023-05-10T21:16:51.306Z,5.45
2023-05-10T21:19:17.789Z,5.80
2023-05-10T21:21:44.101Z,5.40
2023-05-10T21:24:10.529Z,5.15
2023-05-10T21:26:37.286Z,6.00
2023-05-10T21:29:04.888Z,5.47
2023-05-10T21:31:31.974Z,5.70
2023-05-10T21:33:58.315Z,5.68
2023-05-10T21:36:25.317Z,5.75
2023-05-10T21:38:51.696Z,6.05
2023-05-10T21:41:18.089Z,6.80
2023-05-10T21:43:44.499Z,6.68
2023-05-10T21:46:12.920Z,6.75
2023-05-10T21:48:39.616Z,6.93
2023-05-10T21:51:06.261Z,6.45
2023-05-10T21:53:32.780Z,6.95
2023-05-10T21:55:59.157Z,10.02
2023-05-10T21:58:25.485Z,9.95
2023-05-10T22:00:51.936Z,10.05
2023-05-10T22:03:18.342Z,9.85
2023-05-10T22:05:44.765Z,9.65
2023-05-10T22:08:11.110Z,10.40
2023-05-10T22:10:37.524Z,10.82
2023-05-10T22:13:03.973Z,10.05
2023-05-10T22:15:33.589Z,10.05
2023-05-10T22:18:01.396Z,9.38
2023-05-10T22:20:27.745Z,8.90
2023-05-10T22:22:54.976Z,8.45
2023-05-10T22:25:21.515Z,9.38
2023-05-10T22:27:47.836Z,7.63
2023-05-10T22:30:14.339Z,7.18
2023-05-10T22:32:40.726Z,7.95
2023-05-10T22:35:07.737Z,6.93
2023-05-10T22:37:34.096Z,7.13
2023-05-10T22:40:00.455Z,6.07
2023-05-10T22:42:26.853Z,5.90
2023-05-10T22:44:53.503Z,6.43
2023-05-10T22:47:19.932Z,6.55
2023-05-10T22:49:46.883Z,7.40
2023-05-10T22:52:13.299Z,7.20
2023-05-10T22:54:39.637Z,7.45
2023-05-10T22:57:05.989Z,9.15
2023-05-10T22:59:32.607Z,9.25
2023-05-10T23:01:58.997Z,8.57
2023-05-10T23:04:25.854Z,8.05
2023-05-10T23:06:52.249Z,8.32
2023-05-10T23:09:18.620Z,7.90
2023-05-10T23:11:44.981Z,8.63
2023-05-10T23:14:11.798Z,7.95
2023-05-10T23:16:38.271Z,8.20
2023-05-10T23:19:04.647Z,6.82
2023-05-10T23:21:32.253Z,5.97
2023-05-10T23:23:58.934Z,6.15
2023-05-10T23:26:25.504Z,6.55
2023-05-10T23:28:51.957Z,6.95
2023-05-10T23:31:18.398Z,7.05
2023-05-10T23:33:44.774Z,6.80
2023-05-10T23:36:11.112Z,6.45
2023-05-10T23:38:39.136Z,6.15
2023-05-10T23:41:05.477Z,6.13
2023-05-10T23:43:31.831Z,6.85
2023-05-10T23:45:58.620Z,6.40
2023-05-10T23:48:25.083Z,6.05
2023-05-10T23:50:51.711Z,5.45
2023-05-10T23:53:18.468Z,5.55
2023-05-10T23:55:45.413Z,6.32
2023-05-10T23:58:12.437Z,6.38
